Accueil
METAR-TAF:

METAR-TAF

Aéroports :

Capo Bellavista

Tortolì, Italie

latitude: 39-56N, longitude: 009-43E, altitude: 138 m

Observation

Le bulletin a été fait il y a 59 minutes, à 21:55 UTC
Vent 6 kt de ouest/sud-ouest
Température 22°C
Humidité 83%
Pression 1015 hPa
Visibilité 10 km ou plus
Quelques nuages à une hauteur de 2000 ft

METAR: LIEB 162155Z 24006KT 9999 FEW020 22/19 Q1015 RMK FEW QUK / QUL / VIS MAR 30 KM MON INVIS VIS MIN 9999

Heure: 00:54 (22:54 UTC)


TAF: absent

Observations et prévisions météorologiques de plus de 4000 aéroports (messages METAR et TAF).

Les stations disponibles sont représentées par des disques jaunes et rouges sur la carte.

Passer la souris dessus pour voir le nom de la station.

Cliquer dessus pour voir les observations et prévisions météorologiques.

Pour changer de carte: cliquez sur les boutons verts avec une croix noire pour zoomer, sur le bouton vert avec un tiret pour effectuer un zoom arrière, ou sur les flèches vertes pour les cartes adjacentes.


METAR-TAF: